sensor_id;sensor_type;location;lat;lon;timestamp;P1;durP1;ratioP1;P2;durP2;ratioP2
42244;SDS011;27912;51.828;5.688;2024-01-15T00:00:43;5.03;;;0.75;;
42244;SDS011;27912;51.828;5.688;2024-01-15T00:03:08;7.75;;;1.70;;
42244;SDS011;27912;51.828;5.688;2024-01-15T00:05:34;4.43;;;0.90;;
42244;SDS011;27912;51.828;5.688;2024-01-15T00:08:00;3.85;;;0.85;;
42244;SDS011;27912;51.828;5.688;2024-01-15T00:10:26;5.35;;;0.80;;
42244;SDS011;27912;51.828;5.688;2024-01-15T00:12:51;6.05;;;0.43;;
42244;SDS011;27912;51.828;5.688;2024-01-15T00:15:17;2.75;;;0.30;;
42244;SDS011;27912;51.828;5.688;2024-01-15T00:17:42;2.58;;;0.40;;
42244;SDS011;27912;51.828;5.688;2024-01-15T00:20:08;3.10;;;0.50;;
42244;SDS011;27912;51.828;5.688;2024-01-15T00:22:34;4.00;;;0.50;;
42244;SDS011;27912;51.828;5.688;2024-01-15T00:25:01;3.85;;;0.70;;
42244;SDS011;27912;51.828;5.688;2024-01-15T00:27:27;4.40;;;0.90;;
42244;SDS011;27912;51.828;5.688;2024-01-15T00:29:52;6.45;;;0.80;;
42244;SDS011;27912;51.828;5.688;2024-01-15T00:32:19;10.70;;;1.33;;
42244;SDS011;27912;51.828;5.688;2024-01-15T00:34:45;7.22;;;1.83;;
42244;SDS011;27912;51.828;5.688;2024-01-15T00:37:10;6.65;;;1.88;;
42244;SDS011;27912;51.828;5.688;2024-01-15T00:39:36;4.43;;;1.25;;
42244;SDS011;27912;51.828;5.688;2024-01-15T00:42:02;6.88;;;1.33;;
42244;SDS011;27912;51.828;5.688;2024-01-15T00:44:28;6.15;;;1.85;;
42244;SDS011;27912;51.828;5.688;2024-01-15T00:46:53;5.32;;;1.80;;
42244;SDS011;27912;51.828;5.688;2024-01-15T00:49:19;5.20;;;2.50;;
42244;SDS011;27912;51.828;5.688;2024-01-15T00:51:44;6.75;;;2.45;;
42244;SDS011;27912;51.828;5.688;2024-01-15T00:54:10;5.13;;;2.38;;
42244;SDS011;27912;51.828;5.688;2024-01-15T00:56:36;7.55;;;2.50;;
42244;SDS011;27912;51.828;5.688;2024-01-15T00:59:01;7.50;;;2.13;;
42244;SDS011;27912;51.828;5.688;2024-01-15T01:01:27;6.45;;;2.05;;
42244;SDS011;27912;51.828;5.688;2024-01-15T01:03:53;7.57;;;2.42;;
42244;SDS011;27912;51.828;5.688;2024-01-15T01:06:18;6.47;;;2.35;;
42244;SDS011;27912;51.828;5.688;2024-01-15T01:08:44;7.63;;;2.05;;
42244;SDS011;27912;51.828;5.688;2024-01-15T01:11:13;7.63;;;3.47;;
42244;SDS011;27912;51.828;5.688;2024-01-15T01:13:39;10.07;;;2.78;;
42244;SDS011;27912;51.828;5.688;2024-01-15T01:16:05;4.43;;;1.77;;
42244;SDS011;27912;51.828;5.688;2024-01-15T01:18:31;11.07;;;2.65;;
42244;SDS011;27912;51.828;5.688;2024-01-15T01:20:56;8.23;;;1.80;;
42244;SDS011;27912;51.828;5.688;2024-01-15T01:23:22;5.53;;;1.98;;
42244;SDS011;27912;51.828;5.688;2024-01-15T01:25:48;9.15;;;2.15;;
42244;SDS011;27912;51.828;5.688;2024-01-15T01:28:13;5.88;;;2.72;;
42244;SDS011;27912;51.828;5.688;2024-01-15T01:30:39;5.20;;;1.35;;
42244;SDS011;27912;51.828;5.688;2024-01-15T01:33:04;4.45;;;1.48;;
42244;SDS011;27912;51.828;5.688;2024-01-15T01:35:30;11.05;;;1.55;;
42244;SDS011;27912;51.828;5.688;2024-01-15T01:37:55;8.75;;;1.05;;
42244;SDS011;27912;51.828;5.688;2024-01-15T01:40:21;10.52;;;1.50;;
42244;SDS011;27912;51.828;5.688;2024-01-15T01:42:47;9.80;;;2.42;;
42244;SDS011;27912;51.828;5.688;2024-01-15T01:45:13;8.02;;;1.00;;
42244;SDS011;27912;51.828;5.688;2024-01-15T01:47:39;5.90;;;0.75;;
42244;SDS011;27912;51.828;5.688;2024-01-15T01:50:05;6.78;;;0.80;;
42244;SDS011;27912;51.828;5.688;2024-01-15T01:52:31;7.95;;;1.50;;
42244;SDS011;27912;51.828;5.688;2024-01-15T01:54:58;7.35;;;0.80;;
42244;SDS011;27912;51.828;5.688;2024-01-15T01:57:26;6.65;;;1.05;;
42244;SDS011;27912;51.828;5.688;2024-01-15T01:59:51;6.03;;;0.68;;
42244;SDS011;27912;51.828;5.688;2024-01-15T02:02:18;10.52;;;1.33;;
42244;SDS011;27912;51.828;5.688;2024-01-15T02:04:44;6.30;;;0.80;;
42244;SDS011;27912;51.828;5.688;2024-01-15T02:07:13;12.07;;;1.10;;
42244;SDS011;27912;51.828;5.688;2024-01-15T02:09:41;6.95;;;1.25;;
42244;SDS011;27912;51.828;5.688;2024-01-15T02:12:07;4.70;;;0.82;;
42244;SDS011;27912;51.828;5.688;2024-01-15T02:14:32;8.18;;;1.63;;
42244;SDS011;27912;51.828;5.688;2024-01-15T02:16:58;6.00;;;1.02;;
42244;SDS011;27912;51.828;5.688;2024-01-15T02:19:23;16.73;;;2.03;;
42244;SDS011;27912;51.828;5.688;2024-01-15T02:21:49;9.55;;;0.77;;
42244;SDS011;27912;51.828;5.688;2024-01-15T02:24:15;6.18;;;0.55;;
42244;SDS011;27912;51.828;5.688;2024-01-15T02:26:40;15.02;;;0.80;;
42244;SDS011;27912;51.828;5.688;2024-01-15T02:29:09;8.23;;;1.00;;
42244;SDS011;27912;51.828;5.688;2024-01-15T02:31:35;9.73;;;0.60;;
42244;SDS011;27912;51.828;5.688;2024-01-15T02:34:01;9.07;;;1.15;;
42244;SDS011;27912;51.828;5.688;2024-01-15T02:36:27;9.82;;;0.95;;
42244;SDS011;27912;51.828;5.688;2024-01-15T02:38:52;8.70;;;0.98;;
42244;SDS011;27912;51.828;5.688;2024-01-15T02:41:18;12.63;;;2.33;;
42244;SDS011;27912;51.828;5.688;2024-01-15T02:43:43;6.10;;;0.60;;
42244;SDS011;27912;51.828;5.688;2024-01-15T02:46:09;9.48;;;1.17;;
42244;SDS011;27912;51.828;5.688;2024-01-15T02:48:35;14.98;;;1.05;;
42244;SDS011;27912;51.828;5.688;2024-01-15T02:51:01;5.07;;;0.88;;
42244;SDS011;27912;51.828;5.688;2024-01-15T02:53:27;10.43;;;0.80;;
42244;SDS011;27912;51.828;5.688;2024-01-15T02:55:52;8.38;;;0.73;;
42244;SDS011;27912;51.828;5.688;2024-01-15T02:58:18;5.82;;;0.55;;
42244;SDS011;27912;51.828;5.688;2024-01-15T03:00:44;17.15;;;1.33;;
42244;SDS011;27912;51.828;5.688;2024-01-15T03:03:09;11.15;;;1.00;;
42244;SDS011;27912;51.828;5.688;2024-01-15T03:05:35;9.07;;;0.77;;
42244;SDS011;27912;51.828;5.688;2024-01-15T03:08:00;11.40;;;0.80;;
42244;SDS011;27912;51.828;5.688;2024-01-15T03:10:26;4.70;;;0.90;;
42244;SDS011;27912;51.828;5.688;2024-01-15T03:12:51;6.50;;;0.60;;
42244;SDS011;27912;51.828;5.688;2024-01-15T03:15:17;7.55;;;1.20;;
42244;SDS011;27912;51.828;5.688;2024-01-15T03:17:43;5.00;;;0.60;;
42244;SDS011;27912;51.828;5.688;2024-01-15T03:20:09;3.13;;;0.60;;
42244;SDS011;27912;51.828;5.688;2024-01-15T03:22:35;5.85;;;0.70;;
42244;SDS011;27912;51.828;5.688;2024-01-15T03:25:01;6.47;;;1.08;;
42244;SDS011;27912;51.828;5.688;2024-01-15T03:27:26;11.20;;;1.10;;
42244;SDS011;27912;51.828;5.688;2024-01-15T03:29:52;5.55;;;0.70;;
42244;SDS011;27912;51.828;5.688;2024-01-15T03:32:18;9.00;;;0.63;;
42244;SDS011;27912;51.828;5.688;2024-01-15T03:34:44;6.85;;;0.68;;
42244;SDS011;27912;51.828;5.688;2024-01-15T03:37:10;4.43;;;0.63;;
42244;SDS011;27912;51.828;5.688;2024-01-15T03:39:37;16.80;;;1.45;;
42244;SDS011;27912;51.828;5.688;2024-01-15T03:42:03;10.52;;;0.80;;
42244;SDS011;27912;51.828;5.688;2024-01-15T03:44:29;7.28;;;0.55;;
42244;SDS011;27912;51.828;5.688;2024-01-15T03:46:54;6.18;;;0.50;;
42244;SDS011;27912;51.828;5.688;2024-01-15T03:49:20;7.28;;;0.50;;
42244;SDS011;27912;51.828;5.688;2024-01-15T03:51:45;8.07;;;0.65;;
42244;SDS011;27912;51.828;5.688;2024-01-15T03:54:11;10.13;;;1.10;;
42244;SDS011;27912;51.828;5.688;2024-01-15T03:56:37;13.23;;;0.90;;
42244;SDS011;27912;51.828;5.688;2024-01-15T03:59:02;8.57;;;0.50;;
42244;SDS011;27912;51.828;5.688;2024-01-15T04:01:28;18.90;;;0.82;;
42244;SDS011;27912;51.828;5.688;2024-01-15T04:03:54;7.03;;;0.45;;
42244;SDS011;27912;51.828;5.688;2024-01-15T04:06:20;7.28;;;0.55;;
42244;SDS011;27912;51.828;5.688;2024-01-15T04:08:45;8.45;;;0.50;;
42244;SDS011;27912;51.828;5.688;2024-01-15T04:11:11;11.90;;;0.60;;
42244;SDS011;27912;51.828;5.688;2024-01-15T04:13:36;8.15;;;0.30;;
42244;SDS011;27912;51.828;5.688;2024-01-15T04:16:02;11.40;;;0.60;;
42244;SDS011;27912;51.828;5.688;2024-01-15T04:18:28;5.82;;;0.40;;
42244;SDS011;27912;51.828;5.688;2024-01-15T04:20:54;4.50;;;0.65;;
42244;SDS011;27912;51.828;5.688;2024-01-15T04:23:19;8.93;;;0.63;;
42244;SDS011;27912;51.828;5.688;2024-01-15T04:25:45;2.38;;;0.30;;
42244;SDS011;27912;51.828;5.688;2024-01-15T04:28:11;3.95;;;0.30;;
42244;SDS011;27912;51.828;5.688;2024-01-15T04:30:37;7.65;;;0.32;;
42244;SDS011;27912;51.828;5.688;2024-01-15T04:33:02;9.57;;;0.52;;
42244;SDS011;27912;51.828;5.688;2024-01-15T04:35:28;4.45;;;0.70;;
42244;SDS011;27912;51.828;5.688;2024-01-15T04:37:54;11.82;;;0.60;;
42244;SDS011;27912;51.828;5.688;2024-01-15T04:40:20;6.95;;;0.55;;
42244;SDS011;27912;51.828;5.688;2024-01-15T04:42:45;6.20;;;0.30;;
42244;SDS011;27912;51.828;5.688;2024-01-15T04:45:11;8.35;;;0.40;;
42244;SDS011;27912;51.828;5.688;2024-01-15T04:47:37;14.93;;;0.68;;
42244;SDS011;27912;51.828;5.688;2024-01-15T04:50:03;5.60;;;0.30;;
42244;SDS011;27912;51.828;5.688;2024-01-15T04:52:29;5.68;;;0.30;;
42244;SDS011;27912;51.828;5.688;2024-01-15T04:54:55;6.07;;;0.60;;
42244;SDS011;27912;51.828;5.688;2024-01-15T04:57:20;9.02;;;0.73;;
42244;SDS011;27912;51.828;5.688;2024-01-15T04:59:46;4.75;;;0.50;;
42244;SDS011;27912;51.828;5.688;2024-01-15T05:02:11;5.85;;;0.40;;
42244;SDS011;27912;51.828;5.688;2024-01-15T05:04:37;7.57;;;0.45;;
42244;SDS011;27912;51.828;5.688;2024-01-15T05:07:02;6.75;;;0.52;;
42244;SDS011;27912;51.828;5.688;2024-01-15T05:09:28;7.15;;;0.85;;
42244;SDS011;27912;51.828;5.688;2024-01-15T05:11:54;15.13;;;1.10;;
42244;SDS011;27912;51.828;5.688;2024-01-15T05:14:19;9.93;;;0.60;;
42244;SDS011;27912;51.828;5.688;2024-01-15T05:16:48;5.72;;;0.55;;
42244;SDS011;27912;51.828;5.688;2024-01-15T05:19:14;8.95;;;0.70;;
42244;SDS011;27912;51.828;5.688;2024-01-15T05:21:40;5.70;;;0.60;;
42244;SDS011;27912;51.828;5.688;2024-01-15T05:24:06;4.72;;;0.50;;
42244;SDS011;27912;51.828;5.688;2024-01-15T05:26:32;4.07;;;0.73;;
42244;SDS011;27912;51.828;5.688;2024-01-15T05:28:58;7.85;;;0.73;;
42244;SDS011;27912;51.828;5.688;2024-01-15T05:31:24;5.75;;;0.70;;
42244;SDS011;27912;51.828;5.688;2024-01-15T05:33:49;8.13;;;0.90;;
42244;SDS011;27912;51.828;5.688;2024-01-15T05:36:15;8.00;;;0.90;;
42244;SDS011;27912;51.828;5.688;2024-01-15T05:38:41;11.07;;;0.77;;
42244;SDS011;27912;51.828;5.688;2024-01-15T05:41:06;10.88;;;0.90;;
42244;SDS011;27912;51.828;5.688;2024-01-15T05:43:32;9.50;;;1.45;;
42244;SDS011;27912;51.828;5.688;2024-01-15T05:45:57;6.03;;;0.60;;
42244;SDS011;27912;51.828;5.688;2024-01-15T05:48:23;7.70;;;1.00;;
42244;SDS011;27912;51.828;5.688;2024-01-15T05:50:48;4.15;;;0.70;;
42244;SDS011;27912;51.828;5.688;2024-01-15T05:53:14;3.38;;;1.02;;
42244;SDS011;27912;51.828;5.688;2024-01-15T05:55:40;4.07;;;1.33;;
42244;SDS011;27912;51.828;5.688;2024-01-15T05:58:05;4.13;;;0.90;;
42244;SDS011;27912;51.828;5.688;2024-01-15T06:00:32;7.03;;;1.83;;
42244;SDS011;27912;51.828;5.688;2024-01-15T06:03:01;10.30;;;2.00;;
42244;SDS011;27912;51.828;5.688;2024-01-15T06:05:26;8.52;;;1.42;;
42244;SDS011;27912;51.828;5.688;2024-01-15T06:07:52;8.25;;;1.88;;
42244;SDS011;27912;51.828;5.688;2024-01-15T06:10:18;3.05;;;1.40;;
42244;SDS011;27912;51.828;5.688;2024-01-15T06:12:44;3.08;;;1.15;;
42244;SDS011;27912;51.828;5.688;2024-01-15T06:15:09;5.97;;;1.35;;
42244;SDS011;27912;51.828;5.688;2024-01-15T06:17:35;3.83;;;0.90;;
42244;SDS011;27912;51.828;5.688;2024-01-15T06:20:01;5.78;;;1.05;;
42244;SDS011;27912;51.828;5.688;2024-01-15T06:22:28;3.92;;;1.35;;
42244;SDS011;27912;51.828;5.688;2024-01-15T06:24:53;4.07;;;1.20;;
42244;SDS011;27912;51.828;5.688;2024-01-15T06:27:20;8.52;;;1.48;;
42244;SDS011;27912;51.828;5.688;2024-01-15T06:29:46;3.72;;;1.00;;
42244;SDS011;27912;51.828;5.688;2024-01-15T06:32:12;8.65;;;1.23;;
42244;SDS011;27912;51.828;5.688;2024-01-15T06:34:38;5.97;;;1.00;;
42244;SDS011;27912;51.828;5.688;2024-01-15T06:37:04;5.00;;;1.17;;
42244;SDS011;27912;51.828;5.688;2024-01-15T06:39:29;4.15;;;1.60;;
42244;SDS011;27912;51.828;5.688;2024-01-15T06:41:55;5.22;;;1.45;;
42244;SDS011;27912;51.828;5.688;2024-01-15T06:44:21;5.15;;;2.13;;
42244;SDS011;27912;51.828;5.688;2024-01-15T06:46:46;7.78;;;2.92;;
42244;SDS011;27912;51.828;5.688;2024-01-15T06:49:13;6.97;;;2.38;;
42244;SDS011;27912;51.828;5.688;2024-01-15T06:51:39;6.38;;;3.03;;
42244;SDS011;27912;51.828;5.688;2024-01-15T06:54:05;4.35;;;2.38;;
42244;SDS011;27912;51.828;5.688;2024-01-15T06:56:31;5.97;;;3.17;;
42244;SDS011;27912;51.828;5.688;2024-01-15T06:58:57;5.78;;;3.15;;
42244;SDS011;27912;51.828;5.688;2024-01-15T07:01:23;7.38;;;3.90;;
42244;SDS011;27912;51.828;5.688;2024-01-15T07:03:48;6.88;;;3.47;;
42244;SDS011;27912;51.828;5.688;2024-01-15T07:06:14;8.63;;;3.15;;
42244;SDS011;27912;51.828;5.688;2024-01-15T07:08:40;6.03;;;2.85;;
42244;SDS011;27912;51.828;5.688;2024-01-15T07:11:06;5.18;;;3.30;;
42244;SDS011;27912;51.828;5.688;2024-01-15T07:13:32;7.00;;;3.20;;
42244;SDS011;27912;51.828;5.688;2024-01-15T07:15:58;4.30;;;2.90;;
42244;SDS011;27912;51.828;5.688;2024-01-15T07:18:24;5.13;;;2.90;;
42244;SDS011;27912;51.828;5.688;2024-01-15T07:20:50;5.22;;;2.65;;
42244;SDS011;27912;51.828;5.688;2024-01-15T07:23:16;5.57;;;3.15;;
42244;SDS011;27912;51.828;5.688;2024-01-15T07:25:42;7.45;;;3.30;;
42244;SDS011;27912;51.828;5.688;2024-01-15T07:28:08;7.95;;;3.40;;
42244;SDS011;27912;51.828;5.688;2024-01-15T07:30:33;9.48;;;3.72;;
42244;SDS011;27912;51.828;5.688;2024-01-15T07:32:59;8.75;;;3.63;;
42244;SDS011;27912;51.828;5.688;2024-01-15T07:35:24;8.25;;;4.60;;
42244;SDS011;27912;51.828;5.688;2024-01-15T07:37:50;5.57;;;3.88;;
42244;SDS011;27912;51.828;5.688;2024-01-15T07:40:15;8.23;;;4.53;;
42244;SDS011;27912;51.828;5.688;2024-01-15T07:42:41;9.68;;;5.78;;
42244;SDS011;27912;51.828;5.688;2024-01-15T07:45:10;10.40;;;5.10;;
42244;SDS011;27912;51.828;5.688;2024-01-15T07:47:36;9.98;;;4.80;;
42244;SDS011;27912;51.828;5.688;2024-01-15T07:50:02;9.35;;;4.95;;
42244;SDS011;27912;51.828;5.688;2024-01-15T07:52:28;7.60;;;4.00;;
42244;SDS011;27912;51.828;5.688;2024-01-15T07:54:53;7.20;;;3.50;;
42244;SDS011;27912;51.828;5.688;2024-01-15T07:57:20;8.15;;;4.30;;
42244;SDS011;27912;51.828;5.688;2024-01-15T07:59:45;5.65;;;2.50;;
42244;SDS011;27912;51.828;5.688;2024-01-15T08:02:11;6.53;;;1.90;;
42244;SDS011;27912;51.828;5.688;2024-01-15T08:04:37;4.70;;;1.10;;
42244;SDS011;27912;51.828;5.688;2024-01-15T08:07:03;3.88;;;1.08;;
42244;SDS011;27912;51.828;5.688;2024-01-15T08:09:30;6.80;;;2.67;;
42244;SDS011;27912;51.828;5.688;2024-01-15T08:11:56;2.20;;;0.80;;
42244;SDS011;27912;51.828;5.688;2024-01-15T08:14:22;2.65;;;0.77;;
42244;SDS011;27912;51.828;5.688;2024-01-15T08:16:47;4.43;;;1.30;;
42244;SDS011;27912;51.828;5.688;2024-01-15T08:19:13;6.03;;;1.30;;
42244;SDS011;27912;51.828;5.688;2024-01-15T08:21:39;5.55;;;1.48;;
42244;SDS011;27912;51.828;5.688;2024-01-15T08:24:05;5.30;;;1.75;;
42244;SDS011;27912;51.828;5.688;2024-01-15T08:26:31;6.25;;;1.80;;
42244;SDS011;27912;51.828;5.688;2024-01-15T08:28:58;6.05;;;1.92;;
42244;SDS011;27912;51.828;5.688;2024-01-15T08:31:24;5.60;;;2.03;;
42244;SDS011;27912;51.828;5.688;2024-01-15T08:33:50;6.93;;;2.38;;
42244;SDS011;27912;51.828;5.688;2024-01-15T08:36:15;6.35;;;1.95;;
42244;SDS011;27912;51.828;5.688;2024-01-15T08:38:41;7.03;;;2.78;;
42244;SDS011;27912;51.828;5.688;2024-01-15T08:41:07;7.60;;;2.00;;
42244;SDS011;27912;51.828;5.688;2024-01-15T08:43:33;8.85;;;2.88;;
42244;SDS011;27912;51.828;5.688;2024-01-15T08:45:59;5.47;;;1.27;;
42244;SDS011;27912;51.828;5.688;2024-01-15T08:48:25;5.00;;;1.42;;
42244;SDS011;27912;51.828;5.688;2024-01-15T08:50:54;3.53;;;0.88;;
42244;SDS011;27912;51.828;5.688;2024-01-15T08:53:20;7.03;;;1.00;;
42244;SDS011;27912;51.828;5.688;2024-01-15T08:55:46;7.65;;;0.63;;
42244;SDS011;27912;51.828;5.688;2024-01-15T08:58:12;7.13;;;0.50;;
42244;SDS011;27912;51.828;5.688;2024-01-15T09:00:38;8.07;;;0.40;;
42244;SDS011;27912;51.828;5.688;2024-01-15T09:03:04;2.70;;;0.30;;
42244;SDS011;27912;51.828;5.688;2024-01-15T09:05:30;9.68;;;0.30;;
42244;SDS011;27912;51.828;5.688;2024-01-15T09:07:55;6.22;;;0.30;;
42244;SDS011;27912;51.828;5.688;2024-01-15T09:10:21;9.32;;;0.30;;
42244;SDS011;27912;51.828;5.688;2024-01-15T09:12:47;7.78;;;0.50;;
42244;SDS011;27912;51.828;5.688;2024-01-15T09:15:14;3.40;;;0.30;;
42244;SDS011;27912;51.828;5.688;2024-01-15T09:17:40;5.00;;;0.20;;
42244;SDS011;27912;51.828;5.688;2024-01-15T09:20:06;3.97;;;0.20;;
42244;SDS011;27912;51.828;5.688;2024-01-15T09:22:32;3.70;;;0.20;;
42244;SDS011;27912;51.828;5.688;2024-01-15T09:24:58;3.13;;;0.20;;
42244;SDS011;27912;51.828;5.688;2024-01-15T09:27:23;2.38;;;0.20;;
42244;SDS011;27912;51.828;5.688;2024-01-15T09:29:51;5.93;;;0.75;;
42244;SDS011;27912;51.828;5.688;2024-01-15T09:32:17;3.53;;;0.30;;
42244;SDS011;27912;51.828;5.688;2024-01-15T09:34:43;3.65;;;0.28;;
42244;SDS011;27912;51.828;5.688;2024-01-15T09:37:11;6.43;;;0.30;;
42244;SDS011;27912;51.828;5.688;2024-01-15T09:39:37;7.28;;;0.70;;
42244;SDS011;27912;51.828;5.688;2024-01-15T09:42:03;3.70;;;0.50;;
42244;SDS011;27912;51.828;5.688;2024-01-15T09:44:29;4.00;;;0.40;;
42244;SDS011;27912;51.828;5.688;2024-01-15T09:46:56;3.92;;;1.60;;
42244;SDS011;27912;51.828;5.688;2024-01-15T09:49:22;4.15;;;0.70;;
42244;SDS011;27912;51.828;5.688;2024-01-15T09:51:48;4.70;;;0.80;;
42244;SDS011;27912;51.828;5.688;2024-01-15T09:54:15;7.97;;;1.55;;
42244;SDS011;27912;51.828;5.688;2024-01-15T09:56:42;4.53;;;2.28;;
42244;SDS011;27912;51.828;5.688;2024-01-15T09:59:12;5.85;;;2.95;;
42244;SDS011;27912;51.828;5.688;2024-01-15T10:01:40;7.82;;;4.07;;
42244;SDS011;27912;51.828;5.688;2024-01-15T10:04:06;9.52;;;4.10;;
42244;SDS011;27912;51.828;5.688;2024-01-15T10:06:32;9.70;;;5.10;;
42244;SDS011;27912;51.828;5.688;2024-01-15T10:08:58;11.10;;;5.50;;
42244;SDS011;27912;51.828;5.688;2024-01-15T10:11:25;8.52;;;5.43;;
42244;SDS011;27912;51.828;5.688;2024-01-15T10:13:50;12.85;;;6.63;;
42244;SDS011;27912;51.828;5.688;2024-01-15T10:16:18;12.63;;;7.07;;
42244;SDS011;27912;51.828;5.688;2024-01-15T10:18:44;10.65;;;7.05;;
42244;SDS011;27912;51.828;5.688;2024-01-15T10:21:10;16.23;;;7.65;;
42244;SDS011;27912;51.828;5.688;2024-01-15T10:23:35;11.60;;;6.90;;
42244;SDS011;27912;51.828;5.688;2024-01-15T10:26:01;11.05;;;6.10;;
42244;SDS011;27912;51.828;5.688;2024-01-15T10:28:30;11.13;;;6.10;;
42244;SDS011;27912;51.828;5.688;2024-01-15T10:30:57;12.23;;;5.55;;
42244;SDS011;27912;51.828;5.688;2024-01-15T10:33:26;9.45;;;4.35;;
42244;SDS011;27912;51.828;5.688;2024-01-15T10:35:55;9.85;;;3.90;;
42244;SDS011;27912;51.828;5.688;2024-01-15T10:38:23;7.78;;;3.60;;
42244;SDS011;27912;51.828;5.688;2024-01-15T10:40:53;7.05;;;3.47;;
42244;SDS011;27912;51.828;5.688;2024-01-15T10:43:20;10.68;;;2.65;;
42244;SDS011;27912;51.828;5.688;2024-01-15T10:45:49;8.43;;;3.05;;
42244;SDS011;27912;51.828;5.688;2024-01-15T10:48:17;7.53;;;1.85;;
42244;SDS011;27912;51.828;5.688;2024-01-15T10:50:44;13.25;;;1.90;;
42244;SDS011;27912;51.828;5.688;2024-01-15T10:53:11;8.13;;;1.80;;
42244;SDS011;27912;51.828;5.688;2024-01-15T10:55:38;7.80;;;1.48;;
42244;SDS011;27912;51.828;5.688;2024-01-15T10:58:07;6.57;;;1.20;;
42244;SDS011;27912;51.828;5.688;2024-01-15T11:00:36;4.43;;;1.00;;
42244;SDS011;27912;51.828;5.688;2024-01-15T11:03:03;5.18;;;0.95;;
42244;SDS011;27912;51.828;5.688;2024-01-15T11:08:07;6.82;;;0.60;;
42244;SDS011;27912;51.828;5.688;2024-01-15T11:13:14;6.13;;;0.63;;
42244;SDS011;27912;51.828;5.688;2024-01-15T11:16:10;9.90;;;0.73;;
42244;SDS011;27912;51.828;5.688;2024-01-15T11:18:41;7.68;;;0.45;;
42244;SDS011;27912;51.828;5.688;2024-01-15T11:23:42;11.23;;;0.40;;
42244;SDS011;27912;51.828;5.688;2024-01-15T11:26:26;3.80;;;0.30;;
42244;SDS011;27912;51.828;5.688;2024-01-15T11:28:53;2.10;;;0.22;;
42244;SDS011;27912;51.828;5.688;2024-01-15T11:31:20;6.75;;;0.40;;
42244;SDS011;27912;51.828;5.688;2024-01-15T11:33:51;3.92;;;0.52;;
42244;SDS011;27912;51.828;5.688;2024-01-15T11:36:17;8.13;;;0.65;;
42244;SDS011;27912;51.828;5.688;2024-01-15T11:38:42;3.40;;;0.30;;
42244;SDS011;27912;51.828;5.688;2024-01-15T11:41:14;6.28;;;0.28;;
42244;SDS011;27912;51.828;5.688;2024-01-15T11:46:10;5.55;;;0.60;;
42244;SDS011;27912;51.828;5.688;2024-01-15T11:48:43;2.67;;;0.30;;
42244;SDS011;27912;51.828;5.688;2024-01-15T11:51:12;4.05;;;0.40;;
42244;SDS011;27912;51.828;5.688;2024-01-15T11:53:45;3.00;;;0.20;;
42244;SDS011;27912;51.828;5.688;2024-01-15T11:56:16;7.50;;;0.40;;
42244;SDS011;27912;51.828;5.688;2024-01-15T11:58:43;4.75;;;0.40;;
42244;SDS011;27912;51.828;5.688;2024-01-15T12:01:10;4.57;;;0.50;;
42244;SDS011;27912;51.828;5.688;2024-01-15T12:03:36;5.38;;;0.30;;
42244;SDS011;27912;51.828;5.688;2024-01-15T12:06:05;2.00;;;0.20;;
42244;SDS011;27912;51.828;5.688;2024-01-15T12:08:31;1.65;;;0.30;;
42244;SDS011;27912;51.828;5.688;2024-01-15T12:10:57;3.17;;;0.30;;
42244;SDS011;27912;51.828;5.688;2024-01-15T12:13:23;3.70;;;0.22;;
42244;SDS011;27912;51.828;5.688;2024-01-15T12:15:49;3.70;;;0.32;;
42244;SDS011;27912;51.828;5.688;2024-01-15T12:18:16;8.00;;;0.52;;
42244;SDS011;27912;51.828;5.688;2024-01-15T12:20:43;5.40;;;0.30;;
42244;SDS011;27912;51.828;5.688;2024-01-15T12:23:11;2.95;;;0.40;;
42244;SDS011;27912;51.828;5.688;2024-01-15T12:25:38;2.63;;;0.20;;
42244;SDS011;27912;51.828;5.688;2024-01-15T12:28:04;2.33;;;0.30;;
42244;SDS011;27912;51.828;5.688;2024-01-15T12:30:30;4.43;;;0.30;;
42244;SDS011;27912;51.828;5.688;2024-01-15T12:32:57;4.85;;;0.30;;
42244;SDS011;27912;51.828;5.688;2024-01-15T12:35:23;3.00;;;0.45;;
42244;SDS011;27912;51.828;5.688;2024-01-15T12:37:51;3.50;;;0.40;;
42244;SDS011;27912;51.828;5.688;2024-01-15T12:40:19;5.32;;;0.75;;
42244;SDS011;27912;51.828;5.688;2024-01-15T12:42:46;3.50;;;0.40;;
42244;SDS011;27912;51.828;5.688;2024-01-15T12:45:12;3.33;;;0.40;;
42244;SDS011;27912;51.828;5.688;2024-01-15T12:47:38;9.65;;;0.47;;
42244;SDS011;27912;51.828;5.688;2024-01-15T12:50:09;6.22;;;0.47;;
42244;SDS011;27912;51.828;5.688;2024-01-15T12:52:35;7.80;;;0.43;;
42244;SDS011;27912;51.828;5.688;2024-01-15T12:55:03;5.00;;;0.40;;
42244;SDS011;27912;51.828;5.688;2024-01-15T12:57:30;6.90;;;1.05;;
42244;SDS011;27912;51.828;5.688;2024-01-15T12:59:56;4.28;;;0.30;;
42244;SDS011;27912;51.828;5.688;2024-01-15T13:02:21;4.97;;;0.40;;
42244;SDS011;27912;51.828;5.688;2024-01-15T13:04:47;5.40;;;0.40;;
42244;SDS011;27912;51.828;5.688;2024-01-15T13:07:13;4.45;;;0.30;;
42244;SDS011;27912;51.828;5.688;2024-01-15T13:09:38;4.22;;;0.40;;
42244;SDS011;27912;51.828;5.688;2024-01-15T13:12:04;4.88;;;0.30;;
42244;SDS011;27912;51.828;5.688;2024-01-15T13:14:30;9.88;;;1.30;;
42244;SDS011;27912;51.828;5.688;2024-01-15T13:16:56;4.70;;;0.50;;
42244;SDS011;27912;51.828;5.688;2024-01-15T13:19:23;5.70;;;0.43;;
42244;SDS011;27912;51.828;5.688;2024-01-15T13:21:49;5.78;;;0.40;;
42244;SDS011;27912;51.828;5.688;2024-01-15T13:24:18;4.47;;;0.70;;
42244;SDS011;27912;51.828;5.688;2024-01-15T13:26:44;4.90;;;0.75;;
42244;SDS011;27912;51.828;5.688;2024-01-15T13:29:10;3.40;;;0.30;;
42244;SDS011;27912;51.828;5.688;2024-01-15T13:31:36;4.88;;;0.30;;
42244;SDS011;27912;51.828;5.688;2024-01-15T13:34:03;10.70;;;0.82;;
42244;SDS011;27912;51.828;5.688;2024-01-15T13:36:28;5.07;;;0.55;;
42244;SDS011;27912;51.828;5.688;2024-01-15T13:38:54;6.55;;;0.38;;
42244;SDS011;27912;51.828;5.688;2024-01-15T13:41:20;2.70;;;0.38;;
42244;SDS011;27912;51.828;5.688;2024-01-15T13:43:52;2.20;;;0.35;;
42244;SDS011;27912;51.828;5.688;2024-01-15T13:46:23;3.33;;;0.40;;
42244;SDS011;27912;51.828;5.688;2024-01-15T13:48:51;2.75;;;0.60;;
42244;SDS011;27912;51.828;5.688;2024-01-15T13:51:17;7.43;;;0.35;;
42244;SDS011;27912;51.828;5.688;2024-01-15T13:53:43;6.28;;;0.30;;
42244;SDS011;27912;51.828;5.688;2024-01-15T13:56:08;7.13;;;0.40;;
42244;SDS011;27912;51.828;5.688;2024-01-15T13:58:37;6.20;;;0.50;;
42244;SDS011;27912;51.828;5.688;2024-01-15T14:01:03;3.08;;;0.40;;
42244;SDS011;27912;51.828;5.688;2024-01-15T14:03:30;4.28;;;0.40;;
42244;SDS011;27912;51.828;5.688;2024-01-15T14:05:56;8.10;;;0.70;;
42244;SDS011;27912;51.828;5.688;2024-01-15T14:08:22;5.70;;;0.57;;
42244;SDS011;27912;51.828;5.688;2024-01-15T14:10:48;5.03;;;0.50;;
42244;SDS011;27912;51.828;5.688;2024-01-15T14:13:14;4.18;;;0.40;;
42244;SDS011;27912;51.828;5.688;2024-01-15T14:15:39;8.10;;;0.47;;
42244;SDS011;27912;51.828;5.688;2024-01-15T14:18:05;6.05;;;0.60;;
42244;SDS011;27912;51.828;5.688;2024-01-15T14:20:30;7.22;;;0.75;;
42244;SDS011;27912;51.828;5.688;2024-01-15T14:22:56;11.50;;;0.50;;
42244;SDS011;27912;51.828;5.688;2024-01-15T14:25:22;6.93;;;0.45;;
42244;SDS011;27912;51.828;5.688;2024-01-15T14:27:49;5.38;;;0.40;;
42244;SDS011;27912;51.828;5.688;2024-01-15T14:30:15;7.75;;;0.43;;
42244;SDS011;27912;51.828;5.688;2024-01-15T14:32:41;5.72;;;0.57;;
42244;SDS011;27912;51.828;5.688;2024-01-15T14:35:10;4.35;;;0.88;;
42244;SDS011;27912;51.828;5.688;2024-01-15T14:37:36;10.00;;;1.17;;
42244;SDS011;27912;51.828;5.688;2024-01-15T14:40:03;8.95;;;0.40;;
42244;SDS011;27912;51.828;5.688;2024-01-15T14:42:31;9.40;;;0.63;;
42244;SDS011;27912;51.828;5.688;2024-01-15T14:44:56;9.13;;;0.57;;
42244;SDS011;27912;51.828;5.688;2024-01-15T14:47:22;10.48;;;0.60;;
42244;SDS011;27912;51.828;5.688;2024-01-15T14:49:52;9.18;;;1.83;;